sensor_id;sensor_type;location;lat;lon;timestamp;pressure;altitude;pressure_sealevel;temperature;humidity
5651;BME280;40241;52.684;9.758;2023-02-25T00:00:41;99671.44;;;7.40;69.08
5651;BME280;40241;52.684;9.758;2023-02-25T00:03:09;99672.44;;;7.42;69.10
5651;BME280;40241;52.684;9.758;2023-02-25T00:05:41;99680.88;;;7.39;69.23
5651;BME280;40241;52.684;9.758;2023-02-25T00:08:07;99683.13;;;7.40;69.10
5651;BME280;40241;52.684;9.758;2023-02-25T00:10:33;99692.59;;;7.39;69.04
5651;BME280;40241;52.684;9.758;2023-02-25T00:12:58;99691.81;;;7.39;69.39
5651;BME280;40241;52.684;9.758;2023-02-25T00:15:24;99690.81;;;7.36;69.35
5651;BME280;40241;52.684;9.758;2023-02-25T00:17:50;99695.56;;;7.36;69.32
5651;BME280;40241;52.684;9.758;2023-02-25T00:20:17;99694.81;;;7.35;68.93
5651;BME280;40241;52.684;9.758;2023-02-25T00:22:45;99695.53;;;7.30;68.96
5651;BME280;40241;52.684;9.758;2023-02-25T00:25:10;99700.75;;;7.23;69.26
5651;BME280;40241;52.684;9.758;2023-02-25T00:27:35;99715.13;;;7.18;69.33
5651;BME280;40241;52.684;9.758;2023-02-25T00:30:02;99706.69;;;7.16;69.44
5651;BME280;40241;52.684;9.758;2023-02-25T00:32:27;99705.16;;;7.15;68.97
5651;BME280;40241;52.684;9.758;2023-02-25T00:34:53;99725.28;;;7.06;68.93
5651;BME280;40241;52.684;9.758;2023-02-25T00:37:18;99722.53;;;7.06;68.86
5651;BME280;40241;52.684;9.758;2023-02-25T00:39:43;99723.53;;;7.03;69.09
5651;BME280;40241;52.684;9.758;2023-02-25T00:42:11;99730.22;;;7.02;68.79
5651;BME280;40241;52.684;9.758;2023-02-25T00:44:37;99747.59;;;6.99;68.82
5651;BME280;40241;52.684;9.758;2023-02-25T00:47:04;99734.44;;;6.98;68.93
5651;BME280;40241;52.684;9.758;2023-02-25T00:49:30;99736.16;;;6.95;68.38
5651;BME280;40241;52.684;9.758;2023-02-25T00:51:56;99738.13;;;6.89;68.07
5651;BME280;40241;52.684;9.758;2023-02-25T00:54:21;99738.13;;;6.89;68.58
5651;BME280;40241;52.684;9.758;2023-02-25T00:56:47;99745.34;;;6.92;68.54
5651;BME280;40241;52.684;9.758;2023-02-25T00:59:12;99741.09;;;6.91;68.53
5651;BME280;40241;52.684;9.758;2023-02-25T01:01:38;99748.81;;;6.93;68.50
5651;BME280;40241;52.684;9.758;2023-02-25T01:04:03;99746.84;;;6.93;68.51
5651;BME280;40241;52.684;9.758;2023-02-25T01:06:29;99759.28;;;6.94;68.20
5651;BME280;40241;52.684;9.758;2023-02-25T01:08:56;99751.81;;;6.95;68.31
5651;BME280;40241;52.684;9.758;2023-02-25T01:11:24;99759.53;;;6.96;68.18
5651;BME280;40241;52.684;9.758;2023-02-25T01:13:54;99754.59;;;7.00;68.09
5651;BME280;40241;52.684;9.758;2023-02-25T01:16:22;99760.06;;;7.00;68.03
5651;BME280;40241;52.684;9.758;2023-02-25T01:18:51;99761.53;;;7.01;68.18
5651;BME280;40241;52.684;9.758;2023-02-25T01:21:22;99765.53;;;7.00;68.18
5651;BME280;40241;52.684;9.758;2023-02-25T01:23:55;99772.97;;;7.00;68.11
5651;BME280;40241;52.684;9.758;2023-02-25T01:26:23;99759.09;;;7.03;68.30
5651;BME280;40241;52.684;9.758;2023-02-25T01:28:48;99756.34;;;7.03;67.75
5651;BME280;40241;52.684;9.758;2023-02-25T01:31:19;99764.75;;;7.00;68.11
5651;BME280;40241;52.684;9.758;2023-02-25T01:33:52;99756.56;;;7.00;68.10
5651;BME280;40241;52.684;9.758;2023-02-25T01:36:17;99769.00;;;7.01;67.83
5651;BME280;40241;52.684;9.758;2023-02-25T01:38:43;99782.44;;;7.04;67.72
5651;BME280;40241;52.684;9.758;2023-02-25T01:41:08;99787.91;;;7.04;67.90
5651;BME280;40241;52.684;9.758;2023-02-25T01:43:34;99789.41;;;7.05;67.83
5651;BME280;40241;52.684;9.758;2023-02-25T01:46:00;99786.19;;;7.07;67.89
5651;BME280;40241;52.684;9.758;2023-02-25T01:48:28;99781.72;;;7.09;67.90
5651;BME280;40241;52.684;9.758;2023-02-25T01:51:01;99779.00;;;7.09;67.86
5651;BME280;40241;52.684;9.758;2023-02-25T01:53:39;99791.16;;;7.08;67.95
5651;BME280;40241;52.684;9.758;2023-02-25T01:56:06;99775.97;;;7.02;67.85
5651;BME280;40241;52.684;9.758;2023-02-25T01:58:32;99784.63;;;6.95;68.24
5651;BME280;40241;52.684;9.758;2023-02-25T02:00:59;99784.34;;;6.87;68.16
5651;BME280;40241;52.684;9.758;2023-02-25T02:03:29;99786.31;;;6.87;68.63
5651;BME280;40241;52.684;9.758;2023-02-25T02:06:12;99788.53;;;6.88;68.20
5651;BME280;40241;52.684;9.758;2023-02-25T02:08:41;99797.22;;;6.81;68.44
5651;BME280;40241;52.684;9.758;2023-02-25T02:11:07;99795.75;;;6.86;68.12
5651;BME280;40241;52.684;9.758;2023-02-25T02:13:36;99810.66;;;6.85;68.00
5651;BME280;40241;52.684;9.758;2023-02-25T02:21:59;99816.28;;;6.70;67.35
5651;BME280;40241;52.684;9.758;2023-02-25T02:24:50;99827.97;;;6.70;67.63
5651;BME280;40241;52.684;9.758;2023-02-25T02:27:33;99832.94;;;6.72;67.84
5651;BME280;40241;52.684;9.758;2023-02-25T02:33:13;99825.41;;;6.61;66.85
5651;BME280;40241;52.684;9.758;2023-02-25T02:35:46;99826.09;;;6.56;67.49
5651;BME280;40241;52.684;9.758;2023-02-25T02:41:11;99839.00;;;6.56;67.42
5651;BME280;40241;52.684;9.758;2023-02-25T02:43:44;99846.72;;;6.57;67.80
5651;BME280;40241;52.684;9.758;2023-02-25T02:46:27;99845.19;;;6.51;66.42
5651;BME280;40241;52.684;9.758;2023-02-25T02:48:58;99842.16;;;6.49;67.20
5651;BME280;40241;52.684;9.758;2023-02-25T02:51:30;99840.44;;;6.51;67.30
5651;BME280;40241;52.684;9.758;2023-02-25T02:54:00;99842.00;;;6.58;67.73
5651;BME280;40241;52.684;9.758;2023-02-25T02:56:29;99852.66;;;6.56;67.55
5651;BME280;40241;52.684;9.758;2023-02-25T02:59:01;99851.44;;;6.57;67.22
5651;BME280;40241;52.684;9.758;2023-02-25T03:01:33;99848.91;;;6.53;67.06
5651;BME280;40241;52.684;9.758;2023-02-25T03:04:07;99857.06;;;6.48;67.13
5651;BME280;40241;52.684;9.758;2023-02-25T03:06:38;99857.81;;;6.48;67.30
5651;BME280;40241;52.684;9.758;2023-02-25T03:09:18;99854.81;;;6.46;66.84
5651;BME280;40241;52.684;9.758;2023-02-25T03:11:44;99865.25;;;6.48;67.25
5651;BME280;40241;52.684;9.758;2023-02-25T03:14:11;99863.06;;;6.52;67.18
5651;BME280;40241;52.684;9.758;2023-02-25T03:16:44;99871.53;;;6.54;67.21
5651;BME280;40241;52.684;9.758;2023-02-25T03:19:14;99867.56;;;6.55;67.23
5651;BME280;40241;52.684;9.758;2023-02-25T03:21:49;99871.78;;;6.56;67.05
5651;BME280;40241;52.684;9.758;2023-02-25T03:24:19;99878.00;;;6.56;66.98
5651;BME280;40241;52.684;9.758;2023-02-25T03:26:48;99879.97;;;6.56;66.97
5651;BME280;40241;52.684;9.758;2023-02-25T03:29:17;99889.44;;;6.55;67.02
5651;BME280;40241;52.684;9.758;2023-02-25T03:34:17;99906.09;;;6.57;66.89
5651;BME280;40241;52.684;9.758;2023-02-25T03:36:50;99900.50;;;6.46;66.61
5651;BME280;40241;52.684;9.758;2023-02-25T03:39:21;99910.19;;;6.47;66.83
5651;BME280;40241;52.684;9.758;2023-02-25T03:41:51;99903.19;;;6.40;66.45
5651;BME280;40241;52.684;9.758;2023-02-25T03:44:24;99898.44;;;6.35;66.86
5651;BME280;40241;52.684;9.758;2023-02-25T03:46:52;99912.09;;;6.35;67.25
5651;BME280;40241;52.684;9.758;2023-02-25T03:49:24;99910.53;;;6.29;66.53
5651;BME280;40241;52.684;9.758;2023-02-25T03:51:52;99918.16;;;6.25;66.99
5651;BME280;40241;52.684;9.758;2023-02-25T03:54:20;99929.78;;;6.20;66.41
5651;BME280;40241;52.684;9.758;2023-02-25T03:56:48;99925.00;;;6.15;66.59
5651;BME280;40241;52.684;9.758;2023-02-25T03:59:14;99921.50;;;6.14;66.62
5651;BME280;40241;52.684;9.758;2023-02-25T04:01:41;99931.41;;;6.12;66.57
5651;BME280;40241;52.684;9.758;2023-02-25T04:04:08;99923.22;;;6.12;66.54
5651;BME280;40241;52.684;9.758;2023-02-25T04:06:34;99919.69;;;6.05;66.86
5651;BME280;40241;52.684;9.758;2023-02-25T04:08:59;99924.69;;;6.07;66.65
5651;BME280;40241;52.684;9.758;2023-02-25T04:11:25;99950.97;;;6.04;66.38
5651;BME280;40241;52.684;9.758;2023-02-25T04:13:50;99929.13;;;6.04;66.55
5651;BME280;40241;52.684;9.758;2023-02-25T04:16:16;99929.84;;;6.05;66.43
5651;BME280;40241;52.684;9.758;2023-02-25T04:18:41;99931.41;;;6.12;66.40
5651;BME280;40241;52.684;9.758;2023-02-25T04:21:07;99936.19;;;6.17;66.17
5651;BME280;40241;52.684;9.758;2023-02-25T04:23:34;99933.19;;;6.15;66.24
5651;BME280;40241;52.684;9.758;2023-02-25T04:25:59;99932.25;;;6.18;66.19
5651;BME280;40241;52.684;9.758;2023-02-25T04:28:25;99935.53;;;6.22;66.27
5651;BME280;40241;52.684;9.758;2023-02-25T04:30:50;99936.06;;;6.26;66.33
5651;BME280;40241;52.684;9.758;2023-02-25T04:33:15;99943.75;;;6.27;66.18
5651;BME280;40241;52.684;9.758;2023-02-25T04:35:41;99950.06;;;6.33;66.56
5651;BME280;40241;52.684;9.758;2023-02-25T04:38:06;99947.59;;;6.35;66.02
5651;BME280;40241;52.684;9.758;2023-02-25T04:40:32;99952.56;;;6.37;66.40
5651;BME280;40241;52.684;9.758;2023-02-25T04:42:57;99950.88;;;6.39;66.20
5651;BME280;40241;52.684;9.758;2023-02-25T04:45:22;99952.31;;;6.35;66.39
5651;BME280;40241;52.684;9.758;2023-02-25T04:47:51;99951.00;;;6.30;65.99
5651;BME280;40241;52.684;9.758;2023-02-25T04:50:18;99955.72;;;6.30;66.42
5651;BME280;40241;52.684;9.758;2023-02-25T04:52:43;99957.22;;;6.31;66.50
5651;BME280;40241;52.684;9.758;2023-02-25T04:55:09;99963.22;;;6.35;66.21
5651;BME280;40241;52.684;9.758;2023-02-25T04:57:36;99961.19;;;6.30;66.26
5651;BME280;40241;52.684;9.758;2023-02-25T05:00:17;99957.94;;;6.31;66.22
5651;BME280;40241;52.684;9.758;2023-02-25T05:02:44;99972.19;;;6.35;66.40
5651;BME280;40241;52.684;9.758;2023-02-25T05:05:09;99953.06;;;6.35;66.03
5651;BME280;40241;52.684;9.758;2023-02-25T05:07:35;99951.00;;;6.30;65.96
5651;BME280;40241;52.684;9.758;2023-02-25T05:10:00;99954.69;;;6.27;66.21
5651;BME280;40241;52.684;9.758;2023-02-25T05:12:26;99953.88;;;6.21;65.67
5651;BME280;40241;52.684;9.758;2023-02-25T05:14:51;99960.28;;;6.18;66.04
5651;BME280;40241;52.684;9.758;2023-02-25T05:17:16;99965.28;;;6.20;65.90
5651;BME280;40241;52.684;9.758;2023-02-25T05:19:42;99968.03;;;6.20;65.53
5651;BME280;40241;52.684;9.758;2023-02-25T05:22:07;99977.16;;;6.17;65.69
5651;BME280;40241;52.684;9.758;2023-02-25T05:24:33;99985.56;;;6.13;65.57
5651;BME280;40241;52.684;9.758;2023-02-25T05:26:58;99979.28;;;6.07;65.22
5651;BME280;40241;52.684;9.758;2023-02-25T05:29:28;99990.88;;;6.02;65.16
5651;BME280;40241;52.684;9.758;2023-02-25T05:31:54;99988.91;;;6.02;65.33
5651;BME280;40241;52.684;9.758;2023-02-25T05:34:19;100007.25;;;6.02;65.64
5651;BME280;40241;52.684;9.758;2023-02-25T05:36:47;99996.53;;;5.98;65.41
5651;BME280;40241;52.684;9.758;2023-02-25T05:39:12;100000.97;;;5.96;65.49
5651;BME280;40241;52.684;9.758;2023-02-25T05:41:37;100014.34;;;5.94;65.12
5651;BME280;40241;52.684;9.758;2023-02-25T05:44:04;100011.75;;;5.85;64.86
5651;BME280;40241;52.684;9.758;2023-02-25T05:46:29;100018.22;;;5.87;65.33
5651;BME280;40241;52.684;9.758;2023-02-25T05:48:55;100019.63;;;5.83;64.65
5651;BME280;40241;52.684;9.758;2023-02-25T05:51:21;100025.25;;;5.79;65.10
5651;BME280;40241;52.684;9.758;2023-02-25T05:53:48;100029.34;;;5.84;65.43
5651;BME280;40241;52.684;9.758;2023-02-25T05:56:19;100029.59;;;5.86;65.09
5651;BME280;40241;52.684;9.758;2023-02-25T05:58:45;100031.56;;;5.85;64.81
5651;BME280;40241;52.684;9.758;2023-02-25T06:01:16;100047.00;;;5.88;65.02
5651;BME280;40241;52.684;9.758;2023-02-25T06:03:44;100050.03;;;5.90;65.00
5651;BME280;40241;52.684;9.758;2023-02-25T06:06:11;100051.53;;;5.91;64.63
5651;BME280;40241;52.684;9.758;2023-02-25T06:08:38;100051.34;;;5.95;64.83
5651;BME280;40241;52.684;9.758;2023-02-25T06:11:07;100055.84;;;5.98;64.88
5651;BME280;40241;52.684;9.758;2023-02-25T06:13:33;100061.09;;;6.01;64.61
5651;BME280;40241;52.684;9.758;2023-02-25T06:16:04;100063.84;;;6.01;64.65
5651;BME280;40241;52.684;9.758;2023-02-25T06:18:30;100068.09;;;6.02;64.51
5651;BME280;40241;52.684;9.758;2023-02-25T06:21:05;100071.25;;;6.01;64.40
5651;BME280;40241;52.684;9.758;2023-02-25T06:23:32;100076.00;;;6.00;64.33
5651;BME280;40241;52.684;9.758;2023-02-25T06:25:57;100084.19;;;6.00;64.65
5651;BME280;40241;52.684;9.758;2023-02-25T06:28:23;100086.91;;;6.00;64.72
5651;BME280;40241;52.684;9.758;2023-02-25T06:30:48;100086.34;;;5.96;64.76
5651;BME280;40241;52.684;9.758;2023-02-25T06:33:13;100094.53;;;5.96;64.98
5651;BME280;40241;52.684;9.758;2023-02-25T06:35:39;100091.34;;;5.98;64.40
5651;BME280;40241;52.684;9.758;2023-02-25T06:38:04;100105.28;;;6.00;64.89
5651;BME280;40241;52.684;9.758;2023-02-25T06:40:29;100104.50;;;5.99;64.75
5651;BME280;40241;52.684;9.758;2023-02-25T06:42:57;100103.56;;;6.02;64.63
5651;BME280;40241;52.684;9.758;2023-02-25T06:45:23;100108.81;;;6.06;64.81
5651;BME280;40241;52.684;9.758;2023-02-25T06:47:48;100107.31;;;6.05;64.44
5651;BME280;40241;52.684;9.758;2023-02-25T06:50:13;100107.63;;;6.07;64.55
5651;BME280;40241;52.684;9.758;2023-02-25T06:52:39;100119.47;;;6.04;64.20
5651;BME280;40241;52.684;9.758;2023-02-25T06:55:04;100124.09;;;5.98;64.13
5651;BME280;40241;52.684;9.758;2023-02-25T06:57:31;100124.28;;;5.94;64.13
5651;BME280;40241;52.684;9.758;2023-02-25T06:59:57;100128.16;;;5.88;64.12
5651;BME280;40241;52.684;9.758;2023-02-25T07:02:22;100141.41;;;5.80;64.11
5651;BME280;40241;52.684;9.758;2023-02-25T07:04:47;100138.69;;;5.80;64.46
5651;BME280;40241;52.684;9.758;2023-02-25T07:07:12;100141.41;;;5.80;64.71
5651;BME280;40241;52.684;9.758;2023-02-25T07:09:38;100143.97;;;5.84;64.40
5651;BME280;40241;52.684;9.758;2023-02-25T07:12:03;100148.50;;;5.87;64.70
5651;BME280;40241;52.684;9.758;2023-02-25T07:14:28;100156.31;;;5.94;64.37
5651;BME280;40241;52.684;9.758;2023-02-25T07:16:54;100163.53;;;5.97;64.43
5651;BME280;40241;52.684;9.758;2023-02-25T07:19:19;100157.78;;;5.95;64.29
5651;BME280;40241;52.684;9.758;2023-02-25T07:21:44;100163.38;;;6.00;64.08
5651;BME280;40241;52.684;9.758;2023-02-25T07:24:11;100168.34;;;6.02;64.48
5651;BME280;40241;52.684;9.758;2023-02-25T07:26:37;100165.13;;;6.03;64.28
5651;BME280;40241;52.684;9.758;2023-02-25T07:29:03;100167.84;;;6.03;64.04
5651;BME280;40241;52.684;9.758;2023-02-25T07:31:29;100176.06;;;6.03;64.02
5651;BME280;40241;52.684;9.758;2023-02-25T07:33:55;100176.31;;;6.05;64.07
5651;BME280;40241;52.684;9.758;2023-02-25T07:36:21;100169.38;;;6.04;63.60
5651;BME280;40241;52.684;9.758;2023-02-25T07:38:47;100173.59;;;6.05;63.28
5651;BME280;40241;52.684;9.758;2023-02-25T07:41:17;100175.50;;;5.99;63.58
5651;BME280;40241;52.684;9.758;2023-02-25T07:43:43;100180.13;;;5.93;63.58
5651;BME280;40241;52.684;9.758;2023-02-25T07:46:09;100179.84;;;5.91;63.82
5651;BME280;40241;52.684;9.758;2023-02-25T07:48:34;100180.56;;;5.92;63.91
5651;BME280;40241;52.684;9.758;2023-02-25T07:51:08;100187.75;;;5.89;63.17
5651;BME280;40241;52.684;9.758;2023-02-25T07:53:34;100183.97;;;5.87;64.20
5651;BME280;40241;52.684;9.758;2023-02-25T07:56:00;100189.50;;;5.92;63.79
5651;BME280;40241;52.684;9.758;2023-02-25T07:58:25;100183.88;;;5.96;63.84
5651;BME280;40241;52.684;9.758;2023-02-25T08:00:53;100186.69;;;6.01;63.53
5651;BME280;40241;52.684;9.758;2023-02-25T08:03:18;100195.06;;;6.13;63.88
5651;BME280;40241;52.684;9.758;2023-02-25T08:05:43;100190.09;;;6.11;62.97
5651;BME280;40241;52.684;9.758;2023-02-25T08:08:09;100205.72;;;6.11;62.66
5651;BME280;40241;52.684;9.758;2023-02-25T08:10:36;100206.28;;;6.00;62.05
5651;BME280;40241;52.684;9.758;2023-02-25T08:13:01;100202.78;;;5.99;62.73
5651;BME280;40241;52.684;9.758;2023-02-25T08:15:27;100212.88;;;6.08;63.26
5651;BME280;40241;52.684;9.758;2023-02-25T08:17:52;100215.03;;;6.19;62.81
5651;BME280;40241;52.684;9.758;2023-02-25T08:20:20;100224.25;;;6.21;63.16
5651;BME280;40241;52.684;9.758;2023-02-25T08:22:46;100222.06;;;6.25;62.83
5651;BME280;40241;52.684;9.758;2023-02-25T08:25:11;100225.09;;;6.27;61.79
5651;BME280;40241;52.684;9.758;2023-02-25T08:27:36;100234.13;;;6.19;62.07
5651;BME280;40241;52.684;9.758;2023-02-25T08:30:03;100235.09;;;6.16;61.61
5651;BME280;40241;52.684;9.758;2023-02-25T08:32:33;100241.88;;;6.20;63.02
5651;BME280;40241;52.684;9.758;2023-02-25T08:34:59;100243.16;;;6.25;62.64
5651;BME280;40241;52.684;9.758;2023-02-25T08:37:25;100251.19;;;6.28;62.30
5651;BME280;40241;52.684;9.758;2023-02-25T08:39:53;100251.66;;;6.27;61.96
5651;BME280;40241;52.684;9.758;2023-02-25T08:42:19;100247.91;;;6.24;61.93
5651;BME280;40241;52.684;9.758;2023-02-25T08:44:44;100257.88;;;6.13;61.08
5651;BME280;40241;52.684;9.758;2023-02-25T08:47:10;100253.53;;;6.06;61.98
5651;BME280;40241;52.684;9.758;2023-02-25T08:49:35;100260.88;;;6.00;62.26
5651;BME280;40241;52.684;9.758;2023-02-25T08:52:00;100267.75;;;5.95;61.52
5651;BME280;40241;52.684;9.758;2023-02-25T08:54:26;100275.00;;;5.98;62.44
5651;BME280;40241;52.684;9.758;2023-02-25T08:56:51;100279.72;;;5.98;62.30
5651;BME280;40241;52.684;9.758;2023-02-25T08:59:18;100277.06;;;6.03;62.75
5651;BME280;40241;52.684;9.758;2023-02-25T09:01:44;100300.44;;;6.04;62.13
5651;BME280;40241;52.684;9.758;2023-02-25T09:04:14;100287.91;;;6.13;62.75
5651;BME280;40241;52.684;9.758;2023-02-25T09:06:40;100298.84;;;6.27;63.07
5651;BME280;40241;52.684;9.758;2023-02-25T09:09:05;100305.34;;;6.44;62.70
5651;BME280;40241;52.684;9.758;2023-02-25T09:11:31;100303.47;;;6.50;62.29
5651;BME280;40241;52.684;9.758;2023-02-25T09:13:57;100299.59;;;6.57;62.45
5651;BME280;40241;52.684;9.758;2023-02-25T09:16:22;100309.56;;;6.60;61.75
5651;BME280;40241;52.684;9.758;2023-02-25T09:18:49;100308.34;;;6.61;62.32
5651;BME280;40241;52.684;9.758;2023-02-25T09:21:15;100311.63;;;6.65;62.13
5651;BME280;40241;52.684;9.758;2023-02-25T09:23:41;100315.50;;;6.58;61.87
5651;BME280;40241;52.684;9.758;2023-02-25T09:26:06;100325.59;;;6.67;62.52
5651;BME280;40241;52.684;9.758;2023-02-25T09:28:33;100314.00;;;6.72;61.51
5651;BME280;40241;52.684;9.758;2023-02-25T09:30:58;100327.44;;;6.75;62.00
5651;BME280;40241;52.684;9.758;2023-02-25T09:33:25;100322.25;;;6.92;62.29
5651;BME280;40241;52.684;9.758;2023-02-25T09:35:50;100330.19;;;6.90;61.57
5651;BME280;40241;52.684;9.758;2023-02-25T09:38:16;100331.13;;;6.87;61.44
5651;BME280;40241;52.684;9.758;2023-02-25T09:40:46;100336.03;;;6.83;61.04
5651;BME280;40241;52.684;9.758;2023-02-25T09:43:28;100335.66;;;6.90;60.74
5651;BME280;40241;52.684;9.758;2023-02-25T09:46:08;100346.44;;;6.99;61.21
5651;BME280;40241;52.684;9.758;2023-02-25T09:48:53;100332.78;;;6.99;58.89
5651;BME280;40241;52.684;9.758;2023-02-25T09:51:26;100344.00;;;7.01;60.50
5651;BME280;40241;52.684;9.758;2023-02-25T09:56:27;100360.56;;;7.12;61.43
5651;BME280;40241;52.684;9.758;2023-02-25T09:58:58;100359.34;;;7.13;61.06
5651;BME280;40241;52.684;9.758;2023-02-25T10:01:34;100366.72;;;7.07;60.56
5651;BME280;40241;52.684;9.758;2023-02-25T10:04:30;100368.22;;;7.08;56.71
5651;BME280;40241;52.684;9.758;2023-02-25T10:07:02;100379.16;;;7.08;60.12
5651;BME280;40241;52.684;9.758;2023-02-25T10:09:53;100379.38;;;7.05;59.43
5651;BME280;40241;52.684;9.758;2023-02-25T10:18:25;100392.56;;;7.06;59.20
5651;BME280;40241;52.684;9.758;2023-02-25T10:26:18;100398.84;;;7.27;58.23
5651;BME280;40241;52.684;9.758;2023-02-25T10:28:52;100400.44;;;7.33;59.47
5651;BME280;40241;52.684;9.758;2023-02-25T10:31:20;100405.72;;;7.37;59.40
5651;BME280;40241;52.684;9.758;2023-02-25T10:33:49;100414.06;;;7.48;59.03
5651;BME280;40241;52.684;9.758;2023-02-25T10:36:16;100410.06;;;7.64;59.13
5651;BME280;40241;52.684;9.758;2023-02-25T10:38:49;100420.50;;;7.80;59.03
5651;BME280;40241;52.684;9.758;2023-02-25T10:41:15;100423.50;;;7.82;56.74
5651;BME280;40241;52.684;9.758;2023-02-25T10:43:41;100433.44;;;7.79;57.57
5651;BME280;40241;52.684;9.758;2023-02-25T10:46:19;100435.28;;;7.88;56.43
5651;BME280;40241;52.684;9.758;2023-02-25T10:48:56;100438.78;;;7.88;56.65
5651;BME280;40241;52.684;9.758;2023-02-25T10:51:22;100432.41;;;7.77;57.55
5651;BME280;40241;52.684;9.758;2023-02-25T10:56:18;100433.31;;;7.88;56.88
5651;BME280;40241;52.684;9.758;2023-02-25T10:59:04;100451.28;;;7.75;53.43
5651;BME280;40241;52.684;9.758;2023-02-25T11:01:39;100445.25;;;7.71;54.58
5651;BME280;40241;52.684;9.758;2023-02-25T11:04:13;100444.63;;;7.61;53.14
5651;BME280;40241;52.684;9.758;2023-02-25T11:06:40;100454.75;;;7.55;55.74
5651;BME280;40241;52.684;9.758;2023-02-25T11:09:31;100457.88;;;7.48;54.58
5651;BME280;40241;52.684;9.758;2023-02-25T11:12:00;100461.25;;;7.57;57.09
5651;BME280;40241;52.684;9.758;2023-02-25T11:14:34;100460.22;;;7.55;56.94
5651;BME280;40241;52.684;9.758;2023-02-25T11:17:05;100477.69;;;7.57;56.96
5651;BME280;40241;52.684;9.758;2023-02-25T11:19:39;100482.47;;;7.63;57.26
5651;BME280;40241;52.684;9.758;2023-02-25T11:22:28;100489.69;;;7.45;52.59
5651;BME280;40241;52.684;9.758;2023-02-25T11:24:59;100482.72;;;7.30;56.31
5651;BME280;40241;52.684;9.758;2023-02-25T11:27:39;100483.75;;;7.32;55.00
5651;BME280;40241;52.684;9.758;2023-02-25T11:30:16;100483.94;;;7.43;55.64
5651;BME280;40241;52.684;9.758;2023-02-25T11:32:47;100500.63;;;7.45;55.11
5651;BME280;40241;52.684;9.758;2023-02-25T11:35:19;100502.16;;;7.46;54.08
5651;BME280;40241;52.684;9.758;2023-02-25T11:37:46;100506.75;;;7.40;55.52
5651;BME280;40241;52.684;9.758;2023-02-25T11:40:30;100511.56;;;7.45;54.78
5651;BME280;40241;52.684;9.758;2023-02-25T11:45:28;100504.50;;;7.39;55.50
5651;BME280;40241;52.684;9.758;2023-02-25T11:47:55;100512.53;;;7.28;53.82
5651;BME280;40241;52.684;9.758;2023-02-25T11:50:35;100511.97;;;7.24;54.10
5651;BME280;40241;52.684;9.758;2023-02-25T11:53:15;100517.63;;;7.35;54.61
5651;BME280;40241;52.684;9.758;2023-02-25T11:56:01;100527.34;;;7.50;53.60
5651;BME280;40241;52.684;9.758;2023-02-25T11:58:53;100525.81;;;7.49;52.03
5651;BME280;40241;52.684;9.758;2023-02-25T12:09:42;100559.44;;;7.35;52.69
5651;BME280;40241;52.684;9.758;2023-02-25T12:20:49;100541.50;;;7.34;52.11
5651;BME280;40241;52.684;9.758;2023-02-25T12:26:05;100555.81;;;7.00;51.22
5651;BME280;40241;52.684;9.758;2023-02-25T12:37:14;100573.63;;;6.81;52.35
5651;BME280;40241;52.684;9.758;2023-02-25T12:42:39;100572.66;;;6.84;53.51
5651;BME280;40241;52.684;9.758;2023-02-25T12:45:32;100575.50;;;6.90;52.58
5651;BME280;40241;52.684;9.758;2023-02-25T12:48:18;100579.66;;;6.85;51.33
5651;BME280;40241;52.684;9.758;2023-02-25T12:53:49;100580.19;;;6.74;52.00
5651;BME280;40241;52.684;9.758;2023-02-25T12:59:10;100591.13;;;6.74;53.02
5651;BME280;40241;52.684;9.758;2023-02-25T13:01:53;100598.78;;;6.85;51.39
5651;BME280;40241;52.684;9.758;2023-02-25T13:15:08;100604.81;;;8.95;51.72
5651;BME280;40241;52.684;9.758;2023-02-25T13:18:14;100602.25;;;9.38;50.73
5651;BME280;40241;52.684;9.758;2023-02-25T13:23:32;100596.50;;;9.36;50.14
5651;BME280;40241;52.684;9.758;2023-02-25T13:32:08;100608.59;;;8.23;49.67
5651;BME280;40241;52.684;9.758;2023-02-25T13:37:33;100617.56;;;7.74;50.15
5651;BME280;40241;52.684;9.758;2023-02-25T13:40:11;100620.09;;;7.63;50.34
5651;BME280;40241;52.684;9.758;2023-02-25T13:51:15;100620.88;;;8.62;48.05
5651;BME280;40241;52.684;9.758;2023-02-25T13:56:55;100641.22;;;8.06;49.09
5651;BME280;40241;52.684;9.758;2023-02-25T14:05:12;100648.03;;;7.96;50.99
5651;BME280;40241;52.684;9.758;2023-02-25T14:10:23;100643.06;;;8.44;49.60
5651;BME280;40241;52.684;9.758;2023-02-25T14:18:30;100644.44;;;8.54;47.29
5651;BME280;40241;52.684;9.758;2023-02-25T14:23:55;100651.91;;;8.19;48.97
5651;BME280;40241;52.684;9.758;2023-02-25T14:26:48;100665.97;;;8.12;50.25
5651;BME280;40241;52.684;9.758;2023-02-25T14:37:24;100688.66;;;7.69;46.72
5651;BME280;40241;52.684;9.758;2023-02-25T14:42:32;100696.31;;;7.94;49.20
5651;BME280;40241;52.684;9.758;2023-02-25T14:47:41;100699.69;;;8.32;48.53
5651;BME280;40241;52.684;9.758;2023-02-25T14:50:24;100711.03;;;8.40;45.63
5651;BME280;40241;52.684;9.758;2023-02-25T14:56:18;100712.28;;;8.10;47.23
5651;BME280;40241;52.684;9.758;2023-02-25T14:59:05;100718.31;;;7.85;46.74
5651;BME280;40241;52.684;9.758;2023-02-25T15:07:16;100728.41;;;7.64;48.09
5651;BME280;40241;52.684;9.758;2023-02-25T15:12:45;100731.56;;;7.48;46.12
5651;BME280;40241;52.684;9.758;2023-02-25T15:18:09;100738.22;;;7.32;45.91
5651;BME280;40241;52.684;9.758;2023-02-25T15:20:41;100745.03;;;7.37;47.57
5651;BME280;40241;52.684;9.758;2023-02-25T15:33:38;100774.66;;;7.38;47.64
5651;BME280;40241;52.684;9.758;2023-02-25T15:38:48;100762.09;;;7.32;42.65
5651;BME280;40241;52.684;9.758;2023-02-25T15:43:59;100771.25;;;7.29;46.64
5651;BME280;40241;52.684;9.758;2023-02-25T15:49:46;100788.81;;;7.13;45.95
5651;BME280;40241;52.684;9.758;2023-02-25T15:52:12;100784.00;;;7.08;46.70
5651;BME280;40241;52.684;9.758;2023-02-25T15:59:46;100801.94;;;7.09;47.53
5651;BME280;40241;52.684;9.758;2023-02-25T16:07:44;100803.09;;;7.17;47.30
5651;BME280;40241;52.684;9.758;2023-02-25T16:12:41;100819.09;;;7.10;48.37
5651;BME280;40241;52.684;9.758;2023-02-25T16:15:13;100821.84;;;7.10;47.99
5651;BME280;40241;52.684;9.758;2023-02-25T16:17:45;100823.22;;;7.05;47.81
5651;BME280;40241;52.684;9.758;2023-02-25T16:20:19;100839.47;;;7.09;47.67
5651;BME280;40241;52.684;9.758;2023-02-25T16:22:52;100834.78;;;7.00;47.84
5651;BME280;40241;52.684;9.758;2023-02-25T16:25:27;100844.25;;;6.90;48.53
5651;BME280;40241;52.684;9.758;2023-02-25T16:28:09;100847.19;;;6.77;47.43